Tiempo atmosférico en la estación meteorológica de Priego de Cordoba, Córdoba (520 m.)



Fecha
DESCASC
Temp. máxima en grados centígrados (hora)
DESCASC
Temp. mínima en grados centígrados (hora)
DESCASC
Temp. media en grados centígrados
DESCASC
Racha de viento máxima en m/sg (hora)
DESCASC
Velocidad máxima media en intervalos de 10 minutos(hora)
DESCASC
Precipitaciones diarias en mm
DESCASC
Precipitaciones de 00:00 a 06:00 en mm
DESCASC
Precipitaciones de 06:00 a 12:00 en mm
DESCASC
Precipitaciones de 12:00 a 18:00 en mm
DESCASC
Precipitaciones de 18:00 a 24:00 en mm
DESCASC
25-02-2021 16.1 (13:10) 7.6 (07:30) 11.9 7.5 (14:00) 5.83 (13:50) 0 0 0 0 0
24-02-2021 19.8 (16:10) 4.9 (07:30) 12.3 10.28 (12:40) 7.5 (12:40) 0 0 0 0 0
23-02-2021 16.3 (15:40) 1.1 (07:40) 8.7 6.67 (12:50) 4.72 (12:50) 0 0 0 0 0
22-02-2021 12.1 (15:50) 4.2 (07:30) 8.2 8.89 (15:30) 5.28 (00:20) 0 0 0 0 0
21-02-2021 16.4 (01:20) 7.2 (00:00) 11.8 13.06 (19:50) 8.61 (05:40) 7.2 0 0 6.6 0.6
20-02-2021 22.4 (16:00) 5.3 (00:00) 13.8 12.22 (14:30) 8.33 (14:20) 0 0 0 0 0
19-02-2021 22.4 (14:50) 3.1 (00:00) 12.7 8.06 (15:10) 5.56 (14:40) 0 0 0 0 0
18-02-2021 18.6 (12:30) 3.9 (00:00) 11.3 8.06 (16:10) 5.83 (16:10) 0 0 0 0 0
17-02-2021 21.7 (15:20) 3.4 (00:00) 12.6 6.39 (15:10) 4.44 (15:10) 0 0 0 0 0
16-02-2021 21.1 (14:40) 2.7 (00:00) 11.9 6.11 (16:20) 4.72 (16:40) 0 0 0 0 0
15-02-2021 19.5 (16:00) 8.6 (00:00) 14.1 9.72 (11:10) 6.39 (11:50) 0 0 0 0 0
14-02-2021 20.6 (14:40) 2.6 (00:00) 11.6 6.39 (15:30) 4.17 (16:40) 0 0 0 0 0
13-02-2021 16.9 (16:20) 3.8 (00:00) 10.3 7.22 (15:10) 5.28 (15:10) 0.2 0 0.2 0 0
12-02-2021 15.4 (14:20) 7.4 (00:00) 11.4 8.89 (11:30) 5.28 (11:30) 1 0 1 0 0
11-02-2021 17.1 (16:20) 10.7 (00:00) 13.9 7.78 (00:40) 6.39 (00:40) 0.2 0.2 0 0 0
10-02-2021 13.2 (15:30) 9.9 (00:00) 11.5 22.5 (09:10) 13.33 (08:50) 6 0.4 2.6 1.8 1.2
09-02-2021 13.8 (15:00) 8.3 (00:00) 11.1 19.17 (15:30) 12.5 (15:30) 7.6 0 0.2 2.6 4.8
08-02-2021 11.4 (15:50) 7.4 (00:00) 9.4 15.56 (15:10) 10.28 (15:20) 10.4 3 6 0 1.4
07-02-2021 9.8 (15:40) 6.8 (00:00) 8.3 13.06 (17:50) 9.17 (17:50) 0.2 0.2 0 0 0
06-02-2021 12.7 (15:40) 8.1 (00:00) 10.4 15 (15:10) 8.89 (04:20) 0.8 0 0.6 0 0.2
05-02-2021 15.1 (14:50) 7.3 (00:00) 11.2 8.33 (13:40) 5.83 (13:50) 0.6 0 0 0.2 0.4
04-02-2021 20.1 (14:30) 5.8 (00:00) 13 10.83 (11:50) 7.5 (11:50) 0 0 0 0 0
03-02-2021 16.4 (16:20) 7.6 (00:00) 12 6.39 (17:00) 5 (17:00) 0 0 0 0 0
02-02-2021 15.5 (15:20) 5.3 (00:00) 10.4 7.22 (19:10) 4.72 (17:50) 0 0 0 0 0
01-02-2021 15.5 (13:40) 10 (00:00) 12.8 10.56 (15:10) 6.67 (16:20) 0.4 0.4 0 0 0
31-01-2021 12 (20:50) 8 (00:00) 10 12.78 (21:00) 8.61 (21:10) 0.2 0 0.2 0 0
30-01-2021 14.4 (15:30) 9.1 (00:00) 11.8 13.33 (15:50) 8.61 (15:50) 0.8 0 0.6 0.2 0

Gráficas

Temp. máximas Temp. mínimas Temp. medias Precipitaciones Rachas de viento máximas Velocidades máximas media en intervalos de 10 minutos

Datos horarios

Fecha y hora oficial Temperatura (ºC) Velocidad del viento (km/h) Dirección del viento Racha (km/h) Dirección de racha Precipitación (mm) Presión (hPa) Tendencia (hPa) Humedad (%)
2021-02-28 23:00:00 10.1 10 Oeste 13 Oeste 0 -- -- 69
2021-02-28 22:00:00 11.6 2 Norte 28 Este 0 -- -- 61
2021-02-28 21:00:00 13 22 Este 37 Este 0 -- -- 56
2021-02-28 20:00:00 13.7 12 Este 26 Este 0 -- -- 56
2021-02-28 19:00:00 14.4 7 Nordeste 14 Norte 0 -- -- 62
2021-02-28 18:00:00 15.7 8 Norte 18 Norte 0 -- -- 57
2021-02-28 17:00:00 16.7 9 Norte 23 Nordeste 0 -- -- 53
2021-02-28 16:00:00 17 14 Nordeste 23 Nordeste 0 -- -- 53
2021-02-28 15:00:00 16.5 12 Norte 20 Norte 0 -- -- 54
2021-02-28 14:00:00 16.6 7 Norte 13 Sur 0 -- -- 52
2021-02-28 13:00:00 14.7 6 Sudoeste 10 Sudoeste 0 -- -- 54
2021-02-28 12:00:00 12.7 6 Sudoeste 10 Sudoeste 0 -- -- 60
2021-02-28 11:00:00 11.4 2 Este 7 Nordeste 0 -- -- 71
2021-02-28 10:00:00 9 0 Calma 6 Sur 0 -- -- 95
2021-02-28 09:00:00 5.7 6 Sudoeste 13 Sudoeste 0 -- -- 99
2021-02-28 08:00:00 3.9 7 Sudoeste 12 Sudoeste 0 -- -- 98
2021-02-28 07:00:00 4.3 5 Sudoeste 7 Sudoeste 0 -- -- 97
2021-02-28 06:00:00 4.5 5 Sudoeste 7 Sudoeste 0 -- -- 96
2021-02-28 05:00:00 5.5 3 Oeste 12 Sudoeste 0 -- -- 96
2021-02-28 04:00:00 5.5 6 Sudoeste 8 Sudoeste 0 -- -- 96
2021-02-28 03:00:00 6.4 5 Sudoeste 6 Sudoeste 0 -- -- 95
2021-02-28 02:00:00 6.9 2 Norte 10 Sudoeste 0 -- -- 95
2021-02-28 01:00:00 6.9 9 Sudoeste 11 Sudoeste 0 -- -- 94
2021-02-28 00:00:00 7.6 7 Sudoeste 13 Sudoeste 0 -- -- 94
2021-02-27 23:00:00 7.7 10 Sudoeste 12 Sudoeste 0 -- -- 93
2021-02-27 22:00:00 8.8 6 Sudoeste 10 Sudoeste 0 -- -- 91
2021-02-27 21:00:00 9.8 7 Sudoeste 8 Sudoeste 0 -- -- 89
2021-02-27 20:00:00 10.9 3 Nordeste 9 Nordeste 0 -- -- 84
2021-02-27 19:00:00 11.5 7 Nordeste 15 Nordeste 0 -- -- 82
2021-02-27 18:00:00 12.6 5 Nordeste 10 Nordeste 0 -- -- 77
2021-02-27 17:00:00 13.1 5 Nordeste 15 Nordeste 0 -- -- 70
2021-02-27 16:00:00 13.3 6 Nordeste 19 Norte 0 -- -- 72
2021-02-27 15:00:00 12.8 11 Nordeste 14 Nordeste 0 -- -- 74
2021-02-27 14:00:00 13 6 Nordeste 11 Norte 0 -- -- 74
2021-02-27 13:00:00 12.8 6 Nordeste 10 Norte 0 -- -- 73
2021-02-27 12:00:00 11.9 4 Nordeste 8 Nordeste 0 -- -- 77
2021-02-27 11:00:00 9.6 4 Norte 8 Norte 0 -- -- 91
2021-02-27 10:00:00 7.6 2 Sudoeste 6 Sudoeste 0 -- -- 94
2021-02-27 09:00:00 6.5 5 Sudoeste 8 Sudoeste 0 -- -- 95
2021-02-27 08:00:00 6.1 0 Calma 7 Sudoeste 0 -- -- 96
2021-02-27 07:00:00 5.8 5 Sudoeste 6 Sudoeste 0 -- -- 96
2021-02-27 06:00:00 6.1 4 Sudoeste 9 Sudoeste 0 -- -- 97
2021-02-27 05:00:00 5.8 5 Sudoeste 8 Sudoeste 0 -- -- 96
2021-02-27 04:00:00 6.4 5 Sudoeste 6 Sudoeste 0 -- -- 94
2021-02-27 03:00:00 7 3 Sudoeste 12 Sudoeste 0 -- -- 95
2021-02-27 02:00:00 7.4 11 Sudoeste 12 Sudoeste 0 -- -- 94
2021-02-27 01:00:00 8.2 4 Sur 9 Oeste 0 -- -- 91
2021-02-27 00:00:00 9.2 5 Sur 10 Sudoeste 0 -- -- 89
2021-02-26 23:00:00 9.7 9 Sudoeste 11 Sur 0 -- -- 89
2021-02-26 22:00:00 10.6 9 Sur 11 Sudoeste 0 -- -- 84
2021-02-26 21:00:00 11.9 5 Sudoeste 11 Sudoeste 0 -- -- 79
2021-02-26 20:00:00 13.4 10 Sudoeste 16 Sudoeste 0 -- -- 73
2021-02-26 19:00:00 15.1 6 Oeste 21 Norte 0 -- -- 61
2021-02-26 18:00:00 16.2 14 Norte 24 Norte 0 -- -- 60
2021-02-26 17:00:00 17.4 15 Nordeste 27 Norte 0 -- -- 58
2021-02-26 16:00:00 17.3 18 Norte 27 Norte 0 -- -- 58
2021-02-26 15:00:00 17.2 18 Norte 26 Norte 0 -- -- 57
2021-02-26 14:00:00 17.4 15 Nordeste 22 Norte 0 -- -- 55
2021-02-26 13:00:00 16.6 15 Nordeste 24 Nordeste 0 -- -- 56
2021-02-26 12:00:00 16.1 12 Nordeste 20 Nordeste 0 -- -- 57
2021-02-26 11:00:00 14.2 0 Calma 6 Sudoeste 0 -- -- 63
2021-02-26 10:00:00 10.7 6 Oeste 10 Sudoeste 0 -- -- 72
2021-02-26 09:00:00 9.1 8 Sudoeste 14 Oeste 0 -- -- 79
2021-02-26 08:00:00 9.1 6 Sudoeste 14 Oeste 0 -- -- 78
2021-02-26 07:00:00 9.7 4 Sudoeste 14 Oeste 0 -- -- 74
2021-02-26 06:00:00 9 8 Oeste 12 Sudoeste 0 -- -- 81
2021-02-26 05:00:00 7.5 6 Sudoeste 8 Sudoeste 0 -- -- 91
2021-02-26 04:00:00 7.3 0 Calma 10 Sudoeste 0 -- -- 93
2021-02-26 03:00:00 7.3 3 Sudoeste 7 Sudoeste 0 -- -- 91
2021-02-26 02:00:00 7.8 2 Nordeste 5 Sudoeste 0 -- -- 91
2021-02-26 01:00:00 8.1 4 Sudoeste 9 Sudoeste 0 -- -- 92
2021-02-26 00:00:00 8 4 Sudoeste 8 Sudoeste 0 -- -- 91
2021-02-25 23:00:00 8.9 4 Sudoeste 9 Norte 0 -- -- 88
2021-02-25 22:00:00 9.8 0 Calma 8 Sudoeste 0 -- -- 84
2021-02-25 21:00:00 10.3 5 Sudoeste 9 Sudoeste 0 -- -- 82
2021-02-25 20:00:00 11.8 7 Nordeste 12 Nordeste 0 -- -- 74
2021-02-25 19:00:00 13 7 Este 14 Nordeste 0 -- -- 68
2021-02-25 18:00:00 14.3 10 Nordeste 19 Nordeste 0 -- -- 64
2021-02-25 17:00:00 14.6 13 Nordeste 21 Nordeste 0 -- -- 63
2021-02-25 16:00:00 14.8 14 Nordeste 22 Nordeste 0 -- -- 61
2021-02-25 15:00:00 15.3 14 Nordeste 27 Nordeste 0 -- -- 60
2021-02-25 14:00:00 15.4 18 Nordeste 27 Nordeste 0 -- -- 57
2021-02-25 13:00:00 15.9 13 Nordeste 18 Nordeste 0 -- -- 56
2021-02-25 12:00:00 14.9 8 Norte 14 Norte 0 -- -- 62
2021-02-25 11:00:00 13 11 Norte 16 Nordeste 0 -- -- 68
2021-02-25 10:00:00 11.4 7 Nordeste 11 Nordeste 0 -- -- 71
2021-02-25 09:00:00 8.1 5 Sudoeste 9 Sudoeste 0 -- -- 78
2021-02-25 08:00:00 8.7 0 Calma 12 Norte 0 -- -- 75
2021-02-25 07:00:00 7.9 10 Nordeste 15 Norte 0 -- -- 82
2021-02-25 06:00:00 8.7 10 Nordeste 18 Nordeste 0 -- -- 75
2021-02-25 05:00:00 9.1 10 Norte 13 Norte 0 -- -- 65
2021-02-25 04:00:00 8.6 6 Sudoeste 19 Sur 0 -- -- 70
2021-02-25 03:00:00 10.3 12 Sur 18 Oeste 0 -- -- 60
2021-02-25 02:00:00 10 11 Sudoeste 24 Sudoeste 0 -- -- 64
2021-02-25 01:00:00 12.2 12 Sur 19 Sudoeste 0 -- -- 51
2021-02-25 00:00:00 12.6 12 Sudoeste 19 Sudoeste 0 -- -- 48
2021-02-24 23:00:00 13.1 4 Noroeste 9 Norte 0 -- -- 43
2021-02-24 22:00:00 13.3 6 Norte 21 Sur 0 -- -- 41
2021-02-24 21:00:00 12.6 5 Sur 22 Noroeste 0 -- -- 45
2021-02-24 20:00:00 13.7 9 Sudoeste 28 Sudeste 0 -- -- 46
2021-02-24 19:00:00 15.8 17 Sudeste 27 Sudeste 0 -- -- 45
2021-02-24 18:00:00 17.7 14 Sur 34 Sudeste 0 -- -- 46
2021-02-24 17:00:00 19.2 15 Sur 36 Sur 0 -- -- 41
2021-02-24 16:00:00 19.7 12 Sur 25 Sudeste 0 -- -- 40
2021-02-24 15:00:00 18.9 12 Sur 30 Sur 0 -- -- 46
2021-02-24 14:00:00 18.3 18 Sur 32 Sur 0 -- -- 46
2021-02-24 13:00:00 17.5 17 Sur 37 Sur 0 -- -- 45
2021-02-24 12:00:00 15.7 5 Noroeste 14 Nordeste 0 -- -- 53
2021-02-24 11:00:00 13.7 5 Norte 13 Norte 0 -- -- 59
2021-02-24 10:00:00 12.1 4 Nordeste 7 Este 0 -- -- 66
2021-02-24 09:00:00 7 3 Sudoeste 13 Sudoeste 0 -- -- 81
2021-02-24 08:00:00 5.9 9 Sudoeste 17 Oeste 0 -- -- 86
2021-02-24 07:00:00 5.7 6 Sudoeste 24 Sudoeste 0 -- -- 83
2021-02-24 06:00:00 8.9 8 Sur 21 Sudeste 0 -- -- 71
2021-02-24 05:00:00 8.1 8 Sur 20 Sudeste 0 -- -- 75
2021-02-24 04:00:00 6.7 7 Sudoeste 14 Oeste 0 -- -- 83
2021-02-24 03:00:00 6 9 Sudoeste 14 Sudoeste 0 -- -- 88
2021-02-24 02:00:00 7.2 0 Calma 8 Sudoeste 0 -- -- 84
2021-02-24 01:00:00 6.8 4 Sur 17 Sudoeste 0 -- -- 85
2021-02-24 00:00:00 6.7 6 Sudoeste 15 Sudoeste 0 -- -- 87
2021-02-23 23:00:00 7.1 5 Sudoeste 8 Oeste 0 -- -- 85
2021-02-23 22:00:00 8.4 5 Sudoeste 8 Oeste 0 -- -- 80
2021-02-23 21:00:00 9.4 6 Sudoeste 10 Sudoeste 0 -- -- 76
2021-02-23 20:00:00 11.7 4 Este 12 Norte 0 -- -- 65
2021-02-23 19:00:00 13.1 6 Nordeste 17 Nordeste 0 -- -- 59
2021-02-23 18:00:00 14.8 12 Norte 19 Norte 0 -- -- 53
2021-02-23 17:00:00 15.6 11 Norte 22 Nordeste 0 -- -- 52
2021-02-23 16:00:00 15.3 13 Norte 22 Norte 0 -- -- 49
2021-02-23 15:00:00 15.7 7 Oeste 22 Sudoeste 0 -- -- 43
2021-02-23 14:00:00 15.2 7 Oeste 23 Sudoeste 0 -- -- 40
2021-02-23 13:00:00 14.4 15 Sudoeste 24 Sur 0 -- -- 46
2021-02-23 12:00:00 12.7 4 Oeste 13 Norte 0 -- -- 55
2021-02-23 11:00:00 9.7 4 Norte 8 Norte 0 -- -- 73
2021-02-23 10:00:00 5.5 0 Calma 8 Sudoeste 0 -- -- 98
2021-02-23 09:00:00 1.8 6 Sudoeste 8 Sudoeste 0 -- -- 98
2021-02-23 08:00:00 1.2 7 Sudoeste 10 Sudoeste 0 -- -- 96
2021-02-23 07:00:00 1.6 5 Sudoeste 9 Sudoeste 0 -- -- 97
2021-02-23 06:00:00 1.6 9 Sudoeste 10 Sudoeste 0 -- -- 97
2021-02-23 05:00:00 2.9 0 Calma 10 Sudoeste 0 -- -- 97
2021-02-23 04:00:00 2.7 5 Sudoeste 8 Sudoeste 0 -- -- 94
2021-02-23 03:00:00 3.4 6 Sur 10 Sudoeste 0 -- -- 94
2021-02-23 02:00:00 3.9 4 Sudoeste 10 Sudoeste 0 -- -- 93
2021-02-23 01:00:00 3.9 8 Sudoeste 10 Sudoeste 0 -- -- 92
2021-02-23 00:00:00 5 0 Calma 10 Sudoeste 0 -- -- 89
2021-02-22 23:00:00 4.9 8 Sudoeste 12 Sudoeste 0 -- -- 89
2021-02-22 22:00:00 5.7 8 Sudoeste 11 Oeste 0 -- -- 85
2021-02-22 21:00:00 7.1 5 Sudoeste 12 Sudoeste 0 -- -- 78
2021-02-22 20:00:00 8.1 8 Sudoeste 12 Sudoeste 0 -- -- 72
2021-02-22 19:00:00 10.7 2 Noroeste 13 Noroeste 0 -- -- 56
2021-02-22 18:00:00 11.3 9 Oeste 31 Oeste 0 -- -- 57
2021-02-22 17:00:00 11.7 15 Oeste 26 Oeste 0 -- -- 54
2021-02-22 16:00:00 11.9 13 Oeste 32 Oeste 0 -- -- 54
2021-02-22 15:00:00 11.3 17 Oeste 29 Oeste 0 -- -- 52
2021-02-22 14:00:00 11 17 Sudoeste 29 Noroeste 0 -- -- 59
2021-02-22 13:00:00 11.3 7 Norte 18 Sur 0 -- -- 54
2021-02-22 12:00:00 10.4 4 Norte 18 Oeste 0 -- -- 66
2021-02-22 11:00:00 10.2 6 Este 12 Sudeste 0 -- -- 66
2021-02-22 10:00:00 7.8 8 Sur 12 Sur 0 -- -- 78
2021-02-22 09:00:00 5.3 9 Sudoeste 19 Sudoeste 0 -- -- 84
2021-02-22 08:00:00 4.3 5 Sudoeste 18 Sudoeste 0 -- -- 88
2021-02-22 07:00:00 4.5 11 Sudoeste 20 Sudoeste 0 -- -- 88
2021-02-22 06:00:00 4.8 9 Sudoeste 13 Sur 0 -- -- 88
2021-02-22 05:00:00 5.3 6 Sudoeste 26 Sudoeste 0 -- -- 88
2021-02-22 04:00:00 5.8 13 Sudoeste 19 Sudoeste 0 -- -- 90
2021-02-22 03:00:00 6.4 13 Sudoeste 18 Sudoeste 0 -- -- 89
2021-02-22 02:00:00 6.9 16 Sudoeste 23 Sudoeste 0 -- -- 87
2021-02-22 01:00:00 7 13 Sudoeste 26 Sudoeste 0 -- -- 87
2021-02-22 00:00:00 7.5 19 Sudoeste 26 Sudoeste 0 -- -- 86
2021-02-21 23:00:00 7.3 12 Sudoeste 27 Sudoeste 0 -- -- 89
2021-02-21 22:00:00 7.7 15 Sudoeste 24 Oeste 0 -- -- 86
2021-02-21 21:00:00 7.3 13 Sudoeste 34 Oeste 0.2 -- -- 88
2021-02-21 20:00:00 7.5 19 Oeste 47 Oeste 0.2 -- -- 85
2021-02-21 19:00:00 7.3 24 Sudoeste 46 Sudoeste 0.2 -- -- 91
2021-02-21 18:00:00 8 31 Sudoeste 42 Sudoeste 0.4 -- -- 90
2021-02-21 17:00:00 8.3 15 Sudoeste 27 Sudoeste 0.2 -- -- 93
2021-02-21 16:00:00 8.3 14 Sudoeste 45 Sudoeste 4.2 -- -- 93
2021-02-21 15:00:00 10.3 14 Sudoeste 31 Sur 1.4 -- -- 88
2021-02-21 14:00:00 11.2 13 Sur 23 Sur 0.4 -- -- 83
2021-02-21 13:00:00 12.7 17 Sur 24 Sur 0 -- -- 64
2021-02-21 12:00:00 11.8 5 Sudoeste 9 Sudoeste 0 -- -- 72
2021-02-21 11:00:00 11.4 5 Sudoeste 8 Sudoeste 0 -- -- 66
2021-02-21 10:00:00 10.8 3 Sur 8 Oeste 0 -- -- 68
2021-02-21 09:00:00 10.4 5 Sudoeste 14 Norte 0 -- -- 67
2021-02-21 08:00:00 10.4 7 Norte 14 Noroeste 0 -- -- 66
2021-02-21 07:00:00 11.3 4 Sudoeste 22 Sur 0 -- -- 60
2021-02-21 06:00:00 12 15 Sur 43 Sudoeste 0 -- -- 60
2021-02-21 05:00:00 10.7 10 Sudoeste 16 Sudoeste 0 -- -- 56
2021-02-21 04:00:00 11.6 9 Sudoeste 18 Sudoeste 0 -- -- 53
2021-02-21 03:00:00 13.5 10 Sudoeste 17 Sudoeste 0 -- -- 42
2021-02-21 02:00:00 14 7 Sudoeste 21 Sudeste 0 -- -- 38
2021-02-21 01:00:00 15.8 14 Sur 22 Sur 0 -- -- 33
2021-02-21 00:00:00 13.5 9 Sudoeste 21 Sur 0 -- -- 41
2021-02-20 23:00:00 14.7 13 Sudoeste 23 Sudeste 0 -- -- 37
2021-02-20 22:00:00 15.8 15 Sur 26 Sur 0 -- -- 34
2021-02-20 21:00:00 15.6 8 Sudoeste 18 Sur 0 -- -- 35
2021-02-20 20:00:00 17 16 Sur 22 Sudeste 0 -- -- 33
2021-02-20 19:00:00 18 13 Sur 24 Sur 0 -- -- 31
2021-02-20 18:00:00 20.8 19 Sur 35 Sur 0 -- -- 27
2021-02-20 17:00:00 21.8 21 Sudoeste 37 Sur 0 -- -- 25
2021-02-20 16:00:00 22.4 22 Sur 40 Sudoeste 0 -- -- 25
2021-02-20 15:00:00 21.9 26 Sur 44 Sur 0 -- -- 27
2021-02-20 14:00:00 22.3 25 Sudoeste 40 Sudoeste 0 -- -- 25
2021-02-20 13:00:00 21.4 27 Sur 40 Sur 0 -- -- 29
2021-02-20 12:00:00 19.9 23 Sur 34 Sur 0 -- -- 29
2021-02-20 11:00:00 18.6 18 Sur 25 Norte 0 -- -- 32
2021-02-20 10:00:00 15.4 12 Sur 21 Sur 0 -- -- 36
2021-02-20 09:00:00 7.4 8 Sudoeste 15 Sudeste 0 -- -- 59
2021-02-20 08:00:00 5.9 10 Sudoeste 15 Sudoeste 0 -- -- 68
2021-02-20 07:00:00 6.5 12 Sudoeste 19 Oeste 0 -- -- 64
2021-02-20 06:00:00 6.8 8 Sudoeste 25 Sudoeste 0 -- -- 64
2021-02-20 05:00:00 5.3 14 Sudoeste 20 Sudoeste 0 -- -- 75
2021-02-20 04:00:00 5.9 8 Sudoeste 11 Sudoeste 0 -- -- 72
2021-02-20 03:00:00 6.3 7 Sudoeste 13 Sudoeste 0 -- -- 74
2021-02-20 02:00:00 6.3 9 Sudoeste 14 Sudoeste 0 -- -- 77
2021-02-20 01:00:00 7.4 4 Sur 11 Sudoeste 0 -- -- 71
2021-02-20 00:00:00 7.5 7 Sudoeste 23 Sudoeste 0 -- -- 72
2021-02-19 23:00:00 8.5 13 Sudoeste 18 Sudoeste 0 -- -- 71
2021-02-19 22:00:00 10 12 Sudoeste 15 Sudoeste 0 -- -- 64
2021-02-19 21:00:00 12.9 4 Sudoeste 8 Norte 0 -- -- 58
2021-02-19 20:00:00 14.7 4 Norte 9 Nordeste 0 -- -- 67
2021-02-19 19:00:00 16.7 4 Norte 18 Oeste 0 -- -- 59
2021-02-19 18:00:00 20.7 5 Oeste 22 Sudoeste 0 -- -- 45
2021-02-19 17:00:00 21.9 10 Sudoeste 26 Sur 0 -- -- 35
2021-02-19 16:00:00 21.8 18 Sudoeste 29 Sudoeste 0 -- -- 30
2021-02-19 15:00:00 22.2 18 Sudoeste 28 Sudoeste 0 -- -- 28
2021-02-19 14:00:00 22.1 19 Sudeste 28 Sur 0 -- -- 26
2021-02-19 13:00:00 21.4 15 Sur 24 Sur 0 -- -- 30
2021-02-19 12:00:00 18.7 6 Sudoeste 11 Sudoeste 0 -- -- 39
2021-02-19 11:00:00 14.3 4 Sudoeste 9 Sudoeste 0 -- -- 56
2021-02-19 10:00:00 8.8 8 Sudoeste 15 Sudoeste 0 -- -- 69
2021-02-19 09:00:00 4.4 12 Sudoeste 14 Sudoeste 0 -- -- 84
2021-02-19 08:00:00 3.1 11 Sudoeste 19 Sudoeste 0 -- -- 87
2021-02-19 07:00:00 3.3 13 Sudoeste 17 Sudoeste 0 -- -- 87
2021-02-19 06:00:00 3.5 10 Sudoeste 14 Sudoeste 0 -- -- 89
2021-02-19 05:00:00 3.8 13 Sudoeste 14 Sudoeste 0 -- -- 88
2021-02-19 04:00:00 3.9 10 Sudoeste 13 Sudoeste 0 -- -- 91
2021-02-19 03:00:00 4.3 10 Sudoeste 13 Sudoeste 0 -- -- 90
2021-02-19 02:00:00 5.4 6 Sudoeste 10 Sudoeste 0 -- -- 89
2021-02-19 01:00:00 5.9 9 Sudoeste 13 Sudoeste 0 -- -- 89
2021-02-19 00:00:00 6.9 9 Sudoeste 14 Sudoeste 0 -- -- 89
2021-02-18 23:00:00 7.7 11 Sudoeste 12 Sudoeste 0 -- -- 88
2021-02-18 22:00:00 9.3 8 Sudoeste 12 Sudoeste 0 -- -- 86
2021-02-18 21:00:00 11.6 5 Sudoeste 7 Sudoeste 0 -- -- 80
2021-02-18 20:00:00 13.4 4 Nordeste 15 Nordeste 0 -- -- 78
2021-02-18 19:00:00 14.8 11 Nordeste 15 Nordeste 0 -- -- 72
2021-02-18 18:00:00 16.9 12 Nordeste 19 Nordeste 0 -- -- 63
2021-02-18 17:00:00 17.5 14 Nordeste 29 Norte 0 -- -- 62
2021-02-18 16:00:00 17.5 20 Nordeste 28 Nordeste 0 -- -- 62
2021-02-18 15:00:00 18 15 Nordeste 23 Nordeste 0 -- -- 61
2021-02-18 14:00:00 18 17 Nordeste 26 Nordeste 0 -- -- 60
2021-02-18 13:00:00 18.3 14 Nordeste 20 Nordeste 0 -- -- 53
2021-02-18 12:00:00 17.1 4 Oeste 8 Oeste 0 -- -- 50
2021-02-18 11:00:00 13.4 4 Sudoeste 8 Sudoeste 0 -- -- 61
2021-02-18 10:00:00 8.3 7 Sudoeste 13 Sudoeste 0 -- -- 80
2021-02-18 09:00:00 4.6 9 Sudoeste 14 Sudoeste 0 -- -- 91
2021-02-18 08:00:00 4.3 13 Sudoeste 17 Sudoeste 0 -- -- 89
2021-02-18 07:00:00 3.9 11 Sudoeste 14 Sudoeste 0 -- -- 90
2021-02-18 06:00:00 4.5 10 Sudoeste 13 Sudoeste 0 -- -- 85
2021-02-18 05:00:00 5.3 6 Sudoeste 8 Sudoeste 0 -- -- 83
2021-02-18 04:00:00 5.8 5 Sudoeste 13 Sudoeste 0 -- -- 80
2021-02-18 03:00:00 6.7 6 Sudoeste 8 Sudoeste 0 -- -- 78
2021-02-18 02:00:00 7 3 Sudoeste 10 Sudoeste 0 -- -- 77
2021-02-18 01:00:00 7.1 8 Sudoeste 13 Sudoeste 0 -- -- 79
2021-02-18 00:00:00 7.2 10 Sudoeste 14 Sudoeste 0 -- -- 81
2021-02-17 23:00:00 8.8 10 Sudoeste 13 Sudoeste 0 -- -- 75
2021-02-17 22:00:00 10 9 Sudoeste 12 Sudoeste 0 -- -- 72
2021-02-17 21:00:00 11.7 10 Sudoeste 14 Sudoeste 0 -- -- 69
2021-02-17 20:00:00 15.2 9 Sudoeste 16 Nordeste 0 -- -- 53
2021-02-17 19:00:00 17.1 12 Nordeste 16 Nordeste 0 -- -- 46
2021-02-17 18:00:00 19.1 13 Nordeste 22 Nordeste 0 -- -- 45
2021-02-17 17:00:00 20.8 14 Nordeste 22 Nordeste 0 -- -- 41
2021-02-17 16:00:00 21.4 15 Nordeste 23 Nordeste 0 -- -- 33
2021-02-17 15:00:00 21.6 15 Nordeste 22 Nordeste 0 -- -- 38
2021-02-17 14:00:00 21.3 10 Nordeste 15 Nordeste 0 -- -- 36
2021-02-17 13:00:00 20.3 6 Norte 11 Norte 0 -- -- 42
2021-02-17 12:00:00 17.5 4 Nordeste 7 Nordeste 0 -- -- 51
2021-02-17 11:00:00 12.5 5 Sudoeste 9 Sudoeste 0 -- -- 68
2021-02-17 10:00:00 7.5 6 Sudoeste 13 Sudoeste 0 -- -- 89
2021-02-17 09:00:00 4.6 12 Sudoeste 13 Sudoeste 0 -- -- 95
2021-02-17 08:00:00 3.8 10 Sudoeste 11 Sudoeste 0 -- -- 94
2021-02-17 07:00:00 4.7 3 Sudoeste 12 Sudoeste 0 -- -- 94
2021-02-17 06:00:00 4.3 12 Sudoeste 13 Sudoeste 0 -- -- 95
2021-02-17 05:00:00 5.3 6 Sudoeste 10 Sudoeste 0 -- -- 94
2021-02-17 04:00:00 5.3 9 Sudoeste 10 Sudoeste 0 -- -- 93
2021-02-17 03:00:00 6 6 Sudoeste 13 Sudoeste 0 -- -- 93
2021-02-17 02:00:00 6.4 11 Sudoeste 15 Sudoeste 0 -- -- 93
2021-02-17 01:00:00 6.5 12 Sudoeste 14 Sudoeste 0 -- -- 93
2021-02-17 00:00:00 7.2 10 Sudoeste 12 Sudoeste 0 -- -- 92
2021-02-16 23:00:00 8.2 9 Sudoeste 10 Sudoeste 0 -- -- 89
2021-02-16 22:00:00 9.9 5 Sudoeste 6 Sudoeste 0 -- -- 83
2021-02-16 21:00:00 11.5 5 Sudoeste 10 Sudoeste 0 -- -- 77
2021-02-16 20:00:00 13.6 5 Sudoeste 7 Norte 0 -- -- 69
2021-02-16 19:00:00 15.7 7 Nordeste 16 Nordeste 0 -- -- 59
2021-02-16 18:00:00 17.6 13 Nordeste 22 Nordeste 0 -- -- 55
2021-02-16 17:00:00 18.7 17 Nordeste 22 Nordeste 0 -- -- 52
2021-02-16 16:00:00 19.7 14 Nordeste 22 Nordeste 0 -- -- 50
2021-02-16 15:00:00 20.6 10 Nordeste 19 Nordeste 0 -- -- 41
2021-02-16 14:00:00 20.5 10 Sudoeste 19 Sudoeste 0 -- -- 35
2021-02-16 13:00:00 19.1 6 Sur 12 Sur 0 -- -- 38
2021-02-16 12:00:00 15.6 7 Sudoeste 10 Sudoeste 0 -- -- 48
2021-02-16 11:00:00 12.3 0 Calma 6 Oeste 0 -- -- 57
2021-02-16 10:00:00 7.2 4 Sudoeste 10 Sudoeste 0 -- -- 70
2021-02-16 09:00:00 3.6 7 Sudoeste 11 Sudoeste 0 -- -- 87
2021-02-16 08:00:00 3.1 8 Sudoeste 12 Sudoeste 0 -- -- 86
2021-02-16 07:00:00 3 8 Sudoeste 12 Sudoeste 0 -- -- 87
2021-02-16 06:00:00 3.7 10 Sudoeste 12 Sudoeste 0 -- -- 86
2021-02-16 05:00:00 4.3 10 Sudoeste 12 Sudoeste 0 -- -- 84
2021-02-16 04:00:00 4.8 8 Sudoeste 11 Sudoeste 0 -- -- 84
2021-02-16 03:00:00 5.6 7 Sudoeste 13 Sudoeste 0 -- -- 82
2021-02-16 02:00:00 6.1 8 Sudoeste 13 Sudoeste 0 -- -- 82
2021-02-16 01:00:00 7.1 4 Sudoeste 12 Sudoeste 0 -- -- 79
2021-02-16 00:00:00 8.6 4 Oeste 12 Sudoeste 0 -- -- 72
2021-02-15 23:00:00 11.8 3 Oeste 22 Sur 0 -- -- 55
2021-02-15 22:00:00 13.3 23 Sur 33 Sur 0 -- -- 50
2021-02-15 21:00:00 13.3 13 Sur 28 Sudoeste 0 -- -- 53
2021-02-15 20:00:00 14.1 17 Sur 28 Sur 0 -- -- 55
2021-02-15 19:00:00 15.6 12 Sur 26 Sur 0 -- -- 53
2021-02-15 18:00:00 17.9 19 Sur 26 Sur 0 -- -- 48
2021-02-15 17:00:00 19 18 Sur 25 Sur 0 -- -- 42
2021-02-15 16:00:00 19.5 10 Sur 23 Sudeste 0 -- -- 42
2021-02-15 15:00:00 18.7 13 Sudeste 24 Sudeste 0 -- -- 43
2021-02-15 14:00:00 18.1 16 Sudeste 25 Sur 0 -- -- 45
2021-02-15 13:00:00 17.3 17 Sudeste 28 Sudeste 0 -- -- 44
2021-02-15 12:00:00 15.8 21 Sudeste 35 Sur 0 -- -- 46
2021-02-15 11:00:00 15.3 8 Sudeste 21 Sur 0 -- -- 47
2021-02-15 10:00:00 12.4 3 Noroeste 12 Sudoeste 0 -- -- 62
2021-02-15 09:00:00 9.8 8 Sudoeste 14 Sur 0 -- -- 66
2021-02-15 08:00:00 9.3 4 Sudoeste 16 Oeste 0 -- -- 66
2021-02-15 07:00:00 9.8 9 Oeste 14 Oeste 0 -- -- 65
2021-02-15 06:00:00 9.7 9 Sudoeste 17 Sur 0 -- -- 67
2021-02-15 05:00:00 10.1 6 Sudoeste 14 Noroeste 0 -- -- 66
2021-02-15 04:00:00 10.5 5 Sudoeste 13 Oeste 0 -- -- 66
2021-02-15 03:00:00 11 7 Oeste 16 Noroeste 0 -- -- 67
2021-02-15 02:00:00 11.1 7 Oeste 16 Oeste 0 -- -- 70
2021-02-15 01:00:00 11.1 10 Oeste 17 Sudoeste 0 -- -- 69
2021-02-15 00:00:00 10.9 0 Calma 16 Oeste 0 -- -- 66
2021-02-14 23:00:00 10.5 0 Calma 6 Norte 0 -- -- 68
2021-02-14 22:00:00 10 5 Oeste 12 Sudoeste 0 -- -- 71
2021-02-14 21:00:00 10.5 9 Sudoeste 12 Sudoeste 0 -- -- 72
2021-02-14 20:00:00 13.6 8 Sur 12 Sudoeste 0 -- -- 56
2021-02-14 19:00:00 15.9 5 Sudoeste 13 Nordeste 0 -- -- 57
2021-02-14 18:00:00 17.5 11 Nordeste 22 Nordeste 0 -- -- 53
2021-02-14 17:00:00 18.4 13 Nordeste 21 Nordeste 0 -- -- 51
2021-02-14 16:00:00 19.2 11 Norte 23 Norte 0 -- -- 51
2021-02-14 15:00:00 20.3 5 Sudoeste 16 Sudoeste 0 -- -- 34
2021-02-14 14:00:00 19.5 5 Sudoeste 14 Sur 0 -- -- 36
2021-02-14 13:00:00 18.1 2 Sudoeste 8 Norte 0 -- -- 43
2021-02-14 12:00:00 16 3 Nordeste 7 Nordeste 0 -- -- 58
2021-02-14 11:00:00 12.6 4 Nordeste 6 Nordeste 0 -- -- 65
2021-02-14 10:00:00 6.5 3 Sudoeste 10 Sudoeste 0 -- -- 88
2021-02-14 09:00:00 3.5 6 Sudoeste 13 Sudoeste 0 -- -- 93
2021-02-14 08:00:00 2.6 12 Sudoeste 13 Sudoeste 0 -- -- 95
2021-02-14 07:00:00 2.6 8 Sudoeste 11 Sudoeste 0 -- -- 94
2021-02-14 06:00:00 3.1 7 Sudoeste 13 Sudoeste 0 -- -- 94
2021-02-14 05:00:00 3.5 7 Sudoeste 10 Sudoeste 0 -- -- 93
2021-02-14 04:00:00 4.6 3 Sudoeste 12 Sudoeste 0 -- -- 92
2021-02-14 03:00:00 4.5 9 Sudoeste 11 Sudoeste 0 -- -- 91
2021-02-14 02:00:00 5 6 Sudoeste 9 Sudoeste 0 -- -- 90
2021-02-14 01:00:00 5 7 Sudoeste 9 Sudoeste 0 -- -- 89
2021-02-14 00:00:00 5.9 6 Sudoeste 8 Sudoeste 0 -- -- 85
2021-02-13 23:00:00 6.5 5 Sudoeste 8 Sudoeste 0 -- -- 82
2021-02-13 22:00:00 7.4 6 Sudoeste 9 Sudoeste 0 -- -- 79
2021-02-13 21:00:00 8.5 9 Sudoeste 12 Sudoeste 0 -- -- 74
2021-02-13 20:00:00 11.7 6 Sudoeste 10 Este 0 -- -- 61
2021-02-13 19:00:00 13.9 6 Este 17 Norte 0 -- -- 51
2021-02-13 18:00:00 15.6 9 Nordeste 19 Norte 0 -- -- 46
2021-02-13 17:00:00 16.7 12 Nordeste 18 Nordeste 0 -- -- 45
2021-02-13 16:00:00 16.8 14 Nordeste 26 Nordeste 0 -- -- 47
2021-02-13 15:00:00 16.2 18 Nordeste 25 Nordeste 0 -- -- 60
2021-02-13 14:00:00 15.8 9 Nordeste 13 Nordeste 0 -- -- 56
2021-02-13 13:00:00 15.1 8 Nordeste 16 Nordeste 0 -- -- 60
2021-02-13 08:00:00 -- -- -- -- -- -- -- -- --
2021-02-13 07:00:00 3.8 6 Sudoeste 9 Sudoeste 0 -- -- 97
2021-02-13 06:00:00 4.9 4 Sur 6 Sudoeste 0 -- -- 97
2021-02-13 05:00:00 4.4 6 Sudoeste 10 Sudoeste 0 -- -- 97
2021-02-13 04:00:00 5 5 Sudoeste 7 Sudoeste 0 -- -- 96
2021-02-13 03:00:00 5.6 4 Sudoeste 7 Sudoeste 0 -- -- 94
2021-02-13 02:00:00 6.3 0 Calma 5 Sudeste 0 -- -- 94
2021-02-13 01:00:00 6.7 4 Sudoeste 9 Sudoeste 0 -- -- 93
2021-02-13 00:00:00 7.4 4 Sudoeste 9 Sudoeste 0 -- -- 91
2021-02-12 23:00:00 8.1 6 Sudoeste 9 Sudoeste 0 -- -- 90
2021-02-12 22:00:00 9.4 4 Sudoeste 9 Sudoeste 0 -- -- 85
2021-02-12 21:00:00 10.4 7 Sudoeste 13 Sudoeste 0 -- -- 81
2021-02-12 20:00:00 12.5 6 Noroeste 17 Noroeste 0 -- -- 67
2021-02-12 19:00:00 13.1 5 Oeste 18 Noroeste 0 -- -- 67
2021-02-12 18:00:00 14.4 9 Norte 19 Norte 0 -- -- 66
2021-02-12 17:00:00 14.4 7 Nordeste 30 Norte 0 -- -- 64
2021-02-12 16:00:00 14.9 17 Oeste 30 Noroeste 0 -- -- 58
2021-02-12 15:00:00 15 14 Noroeste 31 Noroeste 0 -- -- 55
2021-02-12 14:00:00 15.2 10 Sudoeste 26 Oeste 0 -- -- 50
2021-02-12 13:00:00 14.3 12 Oeste 27 Oeste 0 -- -- 68
2021-02-12 12:00:00 13.7 10 Noroeste 32 Oeste 0 -- -- 78
2021-02-12 11:00:00 13 15 Sudoeste 25 Sudoeste 0 -- -- 92
2021-02-12 10:00:00 11.9 10 Sudoeste 17 Sudoeste 0.2 -- -- 98
2021-02-12 09:00:00 11.3 5 Sudoeste 14 Sudoeste 0.4 -- -- 97
2021-02-12 08:00:00 11.1 9 Sur 14 Sur 0.4 -- -- 96
2021-02-12 07:00:00 11.5 10 Sur 18 Sudoeste 0 -- -- 92
2021-02-12 06:00:00 11.3 13 Sur 21 Sudoeste 0 -- -- 93
2021-02-12 05:00:00 11.6 9 Sur 17 Sudoeste 0 -- -- 93
2021-02-12 04:00:00 11.9 5 Sur 20 Sur 0 -- -- 92
2021-02-12 03:00:00 11.9 16 Sudoeste 24 Sudoeste 0 -- -- 94
2021-02-12 02:00:00 11.1 5 Sudoeste 8 Sudoeste 0 -- -- 95
2021-02-12 01:00:00 11.3 4 Sudoeste 11 Sudoeste 0 -- -- 96
2021-02-12 00:00:00 12.1 5 Sur 6 Sudeste 0 -- -- 94
2021-02-11 23:00:00 12.6 4 Nordeste 7 Norte 0 -- -- 93
2021-02-11 22:00:00 12.9 6 Norte 9 Sudoeste 0 -- -- 93
2021-02-11 21:00:00 13.2 6 Sur 13 Sur 0 -- -- 87
2021-02-11 20:00:00 13.5 5 Sur 13 Nordeste 0 -- -- 88
2021-02-11 19:00:00 13.9 6 Este 17 Nordeste 0 -- -- 88
2021-02-11 18:00:00 14.9 11 Nordeste 19 Norte 0 -- -- 85
2021-02-11 17:00:00 16.3 13 Norte 19 Nordeste 0 -- -- 79
2021-02-11 16:00:00 17 6 Norte 14 Nordeste 0 -- -- 76
2021-02-11 15:00:00 16.3 10 Norte 20 Nordeste 0 -- -- 78
2021-02-11 14:00:00 16 2 Este 18 Sudoeste 0 -- -- 81
2021-02-11 13:00:00 14.6 12 Sur 17 Sur 0 -- -- 85
2021-02-11 12:00:00 13.4 8 Sudoeste 15 Sudoeste 0 -- -- 87
2021-02-11 11:00:00 12.7 9 Sur 11 Sur 0 -- -- 98
2021-02-11 10:00:00 11.8 5 Sudoeste 9 Sudoeste 0 -- -- 99
2021-02-11 09:00:00 11.1 5 Sudoeste 10 Sur 0 -- -- 99
2021-02-11 08:00:00 10.9 6 Sudoeste 10 Sudoeste 0 -- -- 99
2021-02-11 07:00:00 11.1 3 Sur 9 Oeste 0 -- -- 99
2021-02-11 06:00:00 11.5 5 Sudoeste 9 Sudoeste 0 -- -- 99
2021-02-11 05:00:00 11.7 4 Sudoeste 7 Sudoeste 0 -- -- 99
2021-02-11 04:00:00 11.7 2 Sur 16 Sudoeste 0.2 -- -- 98
2021-02-11 03:00:00 11.7 12 Sudoeste 19 Sudoeste 0 -- -- 98
2021-02-11 02:00:00 12 17 Sudoeste 24 Sur 0 -- -- 97
2021-02-11 01:00:00 12.1 18 Sur 28 Sur 0 -- -- 97
2021-02-11 00:00:00 12.1 19 Sur 30 Sur 0 -- -- 98
2021-02-10 23:00:00 12 18 Sur 33 Sudoeste 0 -- -- 98
2021-02-10 22:00:00 12.1 20 Sudoeste 28 Sudoeste 0.2 -- -- 98
2021-02-10 21:00:00 12.1 21 Sur 35 Sudoeste 0 -- -- 98
2021-02-10 20:00:00 12.4 19 Sudoeste 32 Sudoeste 0.4 -- -- 98
2021-02-10 19:00:00 12.6 20 Sudoeste 34 Oeste 0.6 -- -- 97
2021-02-10 18:00:00 12.9 24 Sudoeste 38 Sudoeste 0.8 -- -- 97
2021-02-10 17:00:00 13.1 24 Sudoeste 36 Sudoeste 0.4 -- -- 97
2021-02-10 16:00:00 13 24 Sudoeste 40 Oeste 0.4 -- -- 97
2021-02-10 15:00:00 13 22 Sudoeste 36 Sudoeste 0.2 -- -- 97
2021-02-10 14:00:00 12.9 24 Sudoeste 40 Sudoeste 0 -- -- 97
2021-02-10 13:00:00 12.7 24 Sudoeste 45 Sudoeste 0 -- -- 97
2021-02-10 12:00:00 12.1 33 Sudoeste 52 Sudoeste 0.4 -- -- 97
2021-02-10 11:00:00 11.3 28 Sudoeste 55 Sudoeste 0.8 -- -- 97
2021-02-10 10:00:00 11.1 31 Sudoeste 81 Sudoeste 0.4 -- -- 95
2021-02-10 09:00:00 11.2 47 Sudoeste 78 Oeste 0.6 -- -- 94
2021-02-10 08:00:00 10.4 31 Sudoeste 52 Sudoeste 0.4 -- -- 94
2021-02-10 07:00:00 10.9 32 Sudoeste 53 Sudoeste 0 -- -- 87
2021-02-10 06:00:00 10.7 31 Sudoeste 48 Sudoeste 0 -- -- 87
2021-02-10 05:00:00 10.4 21 Sudoeste 48 Sudoeste 0 -- -- 88
2021-02-10 04:00:00 10.2 18 Sudoeste 52 Sudoeste 0 -- -- 88
2021-02-10 03:00:00 9.9 26 Sudoeste 53 Sudoeste 0.2 -- -- 89
2021-02-10 02:00:00 10.4 35 Sudoeste 60 Sudoeste 0.2 -- -- 87
2021-02-10 01:00:00 10.3 26 Sudoeste 55 Sudoeste 0 -- -- 93
2021-02-10 00:00:00 10.3 37 Sudoeste 64 Sudoeste 0.2 -- -- 93
2021-02-09 23:00:00 9.9 29 Sudoeste 51 Sudoeste 2.2 -- -- 96
2021-02-09 22:00:00 10.4 35 Sudoeste 52 Sudoeste 1 -- -- 96
2021-02-09 21:00:00 10.6 28 Sudoeste 46 Sudoeste 0.6 -- -- 96
2021-02-09 20:00:00 10.4 33 Sudoeste 53 Sudoeste 0.2 -- -- 95
2021-02-09 19:00:00 10.4 24 Sudoeste 65 Sudoeste 0.6 -- -- 96
2021-02-09 18:00:00 10.7 39 Sudoeste 63 Sudoeste 0.4 -- -- 92
2021-02-09 17:00:00 11 43 Sudoeste 67 Sudoeste 2.2 -- -- 90
2021-02-09 16:00:00 12.7 45 Sudoeste 69 Sudoeste 0 -- -- 79
2021-02-09 15:00:00 13.8 31 Sudoeste 56 Sudoeste 0 -- -- 71
2021-02-09 14:00:00 11.9 31 Sudoeste 51 Sudoeste 0 -- -- 82
2021-02-09 13:00:00 12 29 Sudoeste 53 Sudoeste 0 -- -- 76
2021-02-09 12:00:00 12.4 36 Sudoeste 55 Sur 0.2 -- -- 71
2021-02-09 11:00:00 10.3 23 Sudoeste 32 Sudoeste 0 -- -- 82
2021-02-09 10:00:00 9.4 17 Sudoeste 36 Sur 0 -- -- 84
2021-02-09 09:00:00 9.4 24 Sur 34 Sudoeste 0 -- -- 81
2021-02-09 08:00:00 9.1 30 Sudoeste 45 Sudoeste 0 -- -- 85
2021-02-09 07:00:00 8.6 18 Sudoeste 47 Sudoeste 0 -- -- 91
2021-02-09 06:00:00 8.4 14 Sudoeste 26 Sudoeste 0 -- -- 94
2021-02-09 05:00:00 8.7 14 Sudoeste 29 Sudoeste 0 -- -- 91
2021-02-09 04:00:00 8.7 12 Sudoeste 24 Sudoeste 0 -- -- 91
2021-02-09 03:00:00 9.1 10 Sudoeste 22 Sudoeste 0 -- -- 87
2021-02-09 02:00:00 9.3 9 Sudoeste 27 Sudoeste 0 -- -- 87
2021-02-09 01:00:00 9.6 15 Sudoeste 35 Sudoeste 0 -- -- 85
2021-02-09 00:00:00 9.6 16 Sudoeste 25 Sudoeste 0 -- -- 88
2021-02-08 23:00:00 9.6 13 Sudoeste 21 Sudoeste 0 -- -- 89
2021-02-08 22:00:00 9.8 16 Sudoeste 31 Sudoeste 0 -- -- 88
2021-02-08 21:00:00 9.7 17 Sudoeste 42 Oeste 0.6 -- -- 90
2021-02-08 20:00:00 9.8 20 Sudoeste 41 Oeste 0.8 -- -- 90
2021-02-08 19:00:00 10.5 22 Sudoeste 45 Sudoeste 0 -- -- 83
2021-02-08 18:00:00 11 28 Sudoeste 46 Oeste 0 -- -- 76
2021-02-08 17:00:00 10.7 22 Sudoeste 42 Sudoeste 0 -- -- 80
2021-02-08 16:00:00 11.2 32 Sudoeste 56 Sudoeste 0 -- -- 74
2021-02-08 15:00:00 11 34 Sudoeste 53 Oeste 0 -- -- 75
2021-02-08 14:00:00 11.2 27 Sudoeste 42 Sudoeste 0 -- -- 74
2021-02-08 13:00:00 10.3 22 Sudoeste 41 Oeste 0 -- -- 76
2021-02-08 12:00:00 9.5 20 Sudoeste 30 Sudoeste 0 -- -- 81
2021-02-08 11:00:00 9.1 17 Sudoeste 29 Sudoeste 0 -- -- 85
2021-02-08 10:00:00 8.8 18 Sudoeste 30 Oeste 0 -- -- 87
2021-02-08 09:00:00 9.1 25 Sudoeste 45 Sudoeste 0.2 -- -- 89
2021-02-08 08:00:00 9.4 31 Sudoeste 46 Sudoeste 3.2 -- -- 92
2021-02-08 07:00:00 9.6 32 Sudoeste 53 Sudoeste 2.6 -- -- 94
2021-02-08 06:00:00 8.8 26 Sudoeste 39 Sudoeste 1.2 -- -- 95
2021-02-08 05:00:00 8.7 19 Sudoeste 25 Sudoeste 1.2 -- -- 93
2021-02-08 04:00:00 8.4 10 Sudoeste 21 Sudoeste 0.2 -- -- 94
2021-02-08 03:00:00 8 9 Sudoeste 31 Sudoeste 0 -- -- 95
2021-02-08 02:00:00 7.5 12 Sudoeste 26 Sur 0.2 -- -- 96
2021-02-08 01:00:00 7.5 21 Sudoeste 34 Sudoeste 0.2 -- -- 93
2021-02-08 00:00:00 7.9 24 Sudoeste 39 Sudoeste 0 -- -- 83
2021-02-07 23:00:00 7.4 23 Sudoeste 31 Sudoeste 0 -- -- 86
2021-02-07 22:00:00 7.7 5 Sur 22 Oeste 0 -- -- 83
2021-02-07 21:00:00 7.7 18 Sudoeste 28 Sudoeste 0 -- -- 80
2021-02-07 20:00:00 7.5 12 Sudoeste 46 Sudoeste 0 -- -- 78
2021-02-07 19:00:00 7.9 25 Sudoeste 42 Oeste 0 -- -- 75
2021-02-07 18:00:00 8.5 31 Sudoeste 47 Sudoeste 0 -- -- 76
2021-02-07 17:00:00 9.4 22 Sudoeste 42 Sudoeste 0 -- -- 78
2021-02-07 16:00:00 9.6 19 Sudoeste 32 Sudoeste 0 -- -- 79
2021-02-07 15:00:00 9.6 26 Sudoeste 38 Sudoeste 0 -- -- 81
2021-02-07 14:00:00 9.3 21 Sudoeste 27 Sudoeste 0 -- -- 84
2021-02-07 13:00:00 8.8 16 Sudoeste 23 Sudoeste 0 -- -- 87
2021-02-07 12:00:00 8.3 18 Sudoeste 35 Sudoeste 0 -- -- 90
2021-02-07 11:00:00 7.7 20 Sudoeste 27 Sudoeste 0 -- -- 94
2021-02-07 10:00:00 7.5 12 Sudoeste 18 Sudoeste 0 -- -- 92
2021-02-07 09:00:00 7 9 Sur 14 Sur 0 -- -- 94
2021-02-07 08:00:00 6.9 4 Sur 8 Sur 0 -- -- 94
2021-02-07 07:00:00 6.8 10 Sudoeste 14 Sur 0 -- -- 93
2021-02-07 06:00:00 6.8 9 Sudoeste 18 Sudoeste 0 -- -- 92
2021-02-07 05:00:00 6.8 15 Sudoeste 24 Sur 0 -- -- 94
2021-02-07 04:00:00 7 7 Sur 21 Sudoeste 0 -- -- 94
2021-02-07 03:00:00 7.3 14 Sudoeste 23 Sur 0.2 -- -- 92
2021-02-07 02:00:00 7.7 12 Sudoeste 27 Sudoeste 0 -- -- 89
2021-02-07 01:00:00 8.1 14 Sudoeste 28 Sur 0 -- -- 87
2021-02-07 00:00:00 8.1 15 Sudoeste 24 Sudoeste 0 -- -- 89
2021-02-06 23:00:00 8.4 19 Sudoeste 27 Sudoeste 0.2 -- -- 88
2021-02-06 22:00:00 8.6 13 Sudoeste 21 Sudoeste 0 -- -- 89
2021-02-06 21:00:00 9.2 8 Sudoeste 23 Sudoeste 0 -- -- 84
2021-02-06 20:00:00 9.4 16 Sudoeste 32 Sudoeste 0 -- -- 84
2021-02-06 19:00:00 9.8 22 Sudoeste 41 Sudoeste 0 -- -- 82
2021-02-06 18:00:00 10.4 25 Sudoeste 44 Sudoeste 0 -- -- 78
2021-02-06 17:00:00 11.1 20 Sudoeste 39 Oeste 0 -- -- 77
2021-02-06 16:00:00 11.9 25 Sudoeste 54 Sudoeste 0 -- -- 70
2021-02-06 15:00:00 11.9 32 Sudoeste 42 Sudoeste 0 -- -- 68
2021-02-06 14:00:00 12 24 Sudoeste 41 Sudoeste 0 -- -- 74
2021-02-06 13:00:00 10.2 18 Sudoeste 36 Sudoeste 0 -- -- 81
2021-02-06 12:00:00 10.1 18 Sudoeste 30 Sudoeste 0 -- -- 81
2021-02-06 11:00:00 8.9 18 Sudoeste 28 Sudoeste 0 -- -- 87
2021-02-06 10:00:00 8.6 10 Sudoeste 19 Sudoeste 0 -- -- 87
2021-02-06 09:00:00 8.2 12 Sudoeste 37 Sudoeste 0 -- -- 88
2021-02-06 08:00:00 8.2 27 Sudoeste 39 Sudoeste 0 -- -- 91
2021-02-06 07:00:00 8.3 23 Sudoeste 44 Sudoeste 0.6 -- -- 92
2021-02-06 06:00:00 9.6 15 Sudoeste 34 Sur 0 -- -- 86
2021-02-06 05:00:00 10.1 22 Sur 48 Sur 0 -- -- 80
2021-02-06 04:00:00 9.8 26 Sur 47 Sur 0 -- -- 80
2021-02-06 03:00:00 10 21 Sur 33 Sur 0 -- -- 77
2021-02-06 02:00:00 10.1 16 Sur 30 Sur 0 -- -- 75
2021-02-06 01:00:00 9.9 19 Sur 29 Sur 0 -- -- 76
2021-02-06 00:00:00 10.1 15 Sur 23 Sur 0 -- -- 82
2021-02-05 23:00:00 9.6 8 Sur 11 Oeste 0 -- -- 90
2021-02-05 22:00:00 9.8 10 Sur 14 Sur 0 -- -- 89
2021-02-05 21:00:00 9.3 4 Nordeste 9 Norte 0 -- -- 93
2021-02-05 20:00:00 10.1 4 Sudoeste 7 Sudoeste 0 -- -- 88
2021-02-05 19:00:00 10.2 8 Sudoeste 22 Sudoeste 0.4 -- -- 88
2021-02-05 18:00:00 12.5 9 Sur 21 Sudoeste 0.2 -- -- 86
2021-02-05 17:00:00 13.8 12 Sudoeste 26 Sudoeste 0 -- -- 74
2021-02-05 16:00:00 14.9 8 Sudoeste 17 Oeste 0 -- -- 70
2021-02-05 15:00:00 15.1 12 Oeste 26 Sudoeste 0 -- -- 67
2021-02-05 14:00:00 14.5 18 Sudoeste 30 Sudoeste 0 -- -- 71
2021-02-05 13:00:00 14.4 16 Sudoeste 25 Sudoeste 0 -- -- 74
2021-02-05 12:00:00 13.5 16 Sudoeste 23 Sudoeste 0 -- -- 76
2021-02-05 11:00:00 13.1 2 Sudeste 11 Nordeste 0 -- -- 80
2021-02-05 10:00:00 9.6 6 Nordeste 13 Norte 0 -- -- 92
2021-02-05 09:00:00 7.7 10 Nordeste 14 Norte 0 -- -- 92
2021-02-05 08:00:00 8.1 8 Norte 15 Norte 0 -- -- 87
2021-02-05 07:00:00 8.1 6 Norte 12 Sudoeste 0 -- -- 89
2021-02-05 06:00:00 9.1 6 Sudoeste 16 Sudoeste 0 -- -- 86
2021-02-05 05:00:00 9 9 Sudoeste 18 Sur 0 -- -- 95
2021-02-05 04:00:00 8.7 10 Sudoeste 12 Sudoeste 0 -- -- 96
2021-02-05 03:00:00 9.3 7 Sudoeste 9 Norte 0 -- -- 95
2021-02-05 02:00:00 9.7 3 Nordeste 9 Sudeste 0 -- -- 94
2021-02-05 01:00:00 9.7 9 Sudoeste 13 Oeste 0 -- -- 94
2021-02-05 00:00:00 10 6 Sur 13 Sudoeste 0 -- -- 94
2021-02-04 23:00:00 9.8 10 Sudoeste 14 Sudoeste 0 -- -- 93
2021-02-04 22:00:00 10.7 4 Sudoeste 8 Nordeste 0 -- -- 90
2021-02-04 21:00:00 11.6 3 Nordeste 14 Nordeste 0 -- -- 86
2021-02-04 20:00:00 12.2 12 Nordeste 19 Nordeste 0 -- -- 84
2021-02-04 19:00:00 12.8 14 Nordeste 30 Nordeste 0 -- -- 82
2021-02-04 18:00:00 14.2 17 Nordeste 25 Nordeste 0 -- -- 78
2021-02-04 17:00:00 15.4 16 Nordeste 24 Nordeste 0 -- -- 74
2021-02-04 16:00:00 16.1 18 Nordeste 25 Nordeste 0 -- -- 73
2021-02-04 15:00:00 19.6 17 Sudoeste 28 Sudoeste 0 -- -- 46
2021-02-04 14:00:00 19.9 20 Sudoeste 38 Sur 0 -- -- 38
2021-02-04 13:00:00 19.5 24 Sur 38 Sur 0 -- -- 39
2021-02-04 12:00:00 17.4 24 Sur 39 Sur 0 -- -- 50
2021-02-04 11:00:00 13.7 18 Sur 24 Sur 0 -- -- 63
2021-02-04 10:00:00 8.1 6 Sudoeste 11 Sudoeste 0 -- -- 99
2021-02-04 09:00:00 6.1 6 Sudoeste 14 Sudoeste 0 -- -- 98
2021-02-04 08:00:00 6.3 8 Sudoeste 15 Sudoeste 0 -- -- 98
2021-02-04 07:00:00 6 7 Sudoeste 10 Sudoeste 0 -- -- 98
2021-02-04 06:00:00 6.6 5 Oeste 11 Sudoeste 0 -- -- 98
2021-02-04 05:00:00 6 7 Sudoeste 8 Sudoeste 0 -- -- 96
2021-02-04 04:00:00 6.9 7 Sudoeste 8 Sudoeste 0 -- -- 96
2021-02-04 03:00:00 7.3 3 Sudoeste 6 Sudoeste 0 -- -- 96
2021-02-04 02:00:00 7.6 4 Sudoeste 8 Sudoeste 0 -- -- 96
2021-02-04 01:00:00 7.6 4 Sudoeste 9 Sudoeste 0 -- -- 95
2021-02-04 00:00:00 8.4 2 Sur 8 Oeste 0 -- -- 93
2021-02-03 23:00:00 9.1 4 Sudoeste 10 Sudoeste 0 -- -- 92
2021-02-03 22:00:00 9.4 8 Sudoeste 10 Sudoeste 0 -- -- 92
2021-02-03 21:00:00 10.6 0 Calma 8 Nordeste 0 -- -- 86
2021-02-03 20:00:00 11.2 8 Nordeste 15 Nordeste 0 -- -- 84
2021-02-03 19:00:00 12.1 10 Nordeste 22 Nordeste 0 -- -- 81
2021-02-03 18:00:00 14 10 Nordeste 17 Sudoeste 0 -- -- 73
2021-02-03 17:00:00 15.4 18 Sudoeste 23 Sudoeste 0 -- -- 55
2021-02-03 16:00:00 16.3 4 Sur 16 Sudoeste 0 -- -- 60
2021-02-03 15:00:00 15.4 7 Sudoeste 13 Sudoeste 0 -- -- 61
2021-02-03 14:00:00 14.6 2 Nordeste 9 Sudeste 0 -- -- 70
2021-02-03 13:00:00 12.8 0 Calma 13 Sur 0 -- -- 78
2021-02-03 12:00:00 11.1 8 Sur 12 Sur 0 -- -- 83
2021-02-03 11:00:00 9.5 3 Oeste 8 Sudoeste 0 -- -- 98
2021-02-03 10:00:00 8.2 3 Sur 10 Sudoeste 0 -- -- 99
2021-02-03 09:00:00 7.6 5 Sudoeste 13 Sudoeste 0 -- -- 98
2021-02-03 08:00:00 7.7 8 Sudoeste 11 Sur 0 -- -- 98
2021-02-03 07:00:00 7.8 8 Sur 10 Sur 0 -- -- 98
2021-02-03 06:00:00 8.1 6 Sur 8 Sur 0 -- -- 97
2021-02-03 05:00:00 8.6 3 Noroeste 8 Sudoeste 0 -- -- 97
2021-02-03 04:00:00 8.8 7 Sur 9 Sur 0 -- -- 97
2021-02-03 03:00:00 9 4 Sudoeste 9 Sudoeste 0 -- -- 97
2021-02-03 02:00:00 9.1 8 Sudoeste 10 Sudoeste 0 -- -- 97
2021-02-03 01:00:00 9 6 Sudoeste 9 Oeste 0 -- -- 96
2021-02-03 00:00:00 8.5 5 Sudoeste 7 Sur 0 -- -- 95
2021-02-02 23:00:00 9.1 5 Oeste 7 Este 0 -- -- 94
2021-02-02 22:00:00 9.5 0 Calma 9 Sudoeste 0 -- -- 94
2021-02-02 21:00:00 9.8 4 Oeste 12 Este 0 -- -- 92
2021-02-02 20:00:00 10.4 10 Este 26 Nordeste 0 -- -- 90
2021-02-02 19:00:00 11.1 12 Nordeste 20 Nordeste 0 -- -- 87
2021-02-02 18:00:00 13.1 16 Nordeste 23 Nordeste 0 -- -- 81
2021-02-02 17:00:00 14.9 11 Nordeste 18 Nordeste 0 -- -- 77
2021-02-02 16:00:00 15.5 9 Nordeste 18 Norte 0 -- -- 74
2021-02-02 15:00:00 15.2 13 Nordeste 21 Nordeste 0 -- -- 74
2021-02-02 14:00:00 15.1 13 Nordeste 18 Nordeste 0 -- -- 73
2021-02-02 13:00:00 15.1 2 Sur 7 Sur 0 -- -- 75
2021-02-02 12:00:00 12.8 0 Calma 9 Este 0 -- -- 85
2021-02-02 11:00:00 10.1 3 Sur 6 Sur 0 -- -- 97
2021-02-02 10:00:00 7.3 2 Sudoeste 5 Oeste 0 -- -- 98
2021-02-02 09:00:00 5.6 0 Calma 6 Sudoeste 0 -- -- 98
2021-02-02 08:00:00 5.3 3 Sudoeste 5 Noroeste 0 -- -- 97
2021-02-02 07:00:00 6 3 Oeste 6 Sudoeste 0 -- -- 97
2021-02-02 06:00:00 6.2 6 Sudoeste 12 Sudoeste 0 -- -- 97
2021-02-02 05:00:00 6.7 9 Sudoeste 12 Sudoeste 0 -- -- 97
2021-02-02 04:00:00 7.8 8 Sudoeste 9 Sudoeste 0 -- -- 96
2021-02-02 03:00:00 8.9 5 Sudoeste 9 Sudoeste 0 -- -- 95
2021-02-02 02:00:00 10.1 0 Calma 5 Sur 0 -- -- 92
2021-02-02 01:00:00 10.6 3 Sudoeste 9 Sur 0 -- -- 91
2021-02-02 00:00:00 10.8 5 Sudeste 19 Sudoeste 0 -- -- 90
2021-02-01 23:00:00 10.7 13 Sudoeste 24 Sudoeste 0 -- -- 91
2021-02-01 22:00:00 11 17 Sudoeste 26 Sur 0 -- -- 89
2021-02-01 21:00:00 11.1 15 Sur 21 Sudoeste 0 -- -- 89
2021-02-01 20:00:00 11.2 10 Sudoeste 14 Sudoeste 0 -- -- 85
2021-02-01 19:00:00 12.4 8 Sudoeste 19 Sudoeste 0 -- -- 81
2021-02-01 18:00:00 14.4 13 Sudoeste 24 Sudoeste 0 -- -- 73
2021-02-01 17:00:00 15 19 Sudoeste 36 Sudoeste 0 -- -- 68
2021-02-01 16:00:00 15.2 23 Sudoeste 38 Sudoeste 0 -- -- 69
2021-02-01 15:00:00 15 23 Sudoeste 33 Sudoeste 0 -- -- 72
2021-02-01 14:00:00 15.4 13 Sudoeste 22 Sudoeste 0 -- -- 71
2021-02-01 13:00:00 14.8 9 Oeste 23 Sudoeste 0 -- -- 73
2021-02-01 12:00:00 13.7 16 Sudoeste 24 Sudoeste 0 -- -- 80
2021-02-01 11:00:00 13.7 2 Este 11 Nordeste 0 -- -- 90
2021-02-01 10:00:00 11.5 7 Nordeste 11 Nordeste 0 -- -- 97
2021-02-01 09:00:00 10 3 Nordeste 8 Noroeste 0 -- -- 96
2021-02-01 08:00:00 10.2 0 Calma 13 Sudoeste 0 -- -- 96
2021-02-01 07:00:00 11.2 5 Sudoeste 13 Sudoeste 0 -- -- 97
2021-02-01 06:00:00 11.5 5 Norte 14 Sudoeste 0 -- -- 97
2021-02-01 05:00:00 11.8 10 Sudoeste 14 Sudoeste 0.2 -- -- 96
2021-02-01 04:00:00 11.8 10 Sur 17 Sur 0 -- -- 96
2021-02-01 03:00:00 11.6 12 Sur 24 Sur 0 -- -- 96
2021-02-01 02:00:00 11.7 12 Sur 25 Sur 0 -- -- 96
2021-02-01 01:00:00 11.5 19 Sur 30 Sur 0.2 -- -- 96
2021-02-01 00:00:00 11.4 21 Sur 45 Sudoeste 0 -- -- 95
2021-01-31 23:00:00 11.2 26 Sudoeste 41 Sudoeste 0 -- -- 95
2021-01-31 22:00:00 11.6 27 Sudoeste 43 Sudoeste 0 -- -- 91
2021-01-31 21:00:00 11.8 30 Sudoeste 46 Sudoeste 0 -- -- 91
2021-01-31 20:00:00 11.8 26 Sudoeste 39 Sudoeste 0 -- -- 88
2021-01-31 19:00:00 11.7 19 Sudoeste 37 Sudoeste 0 -- -- 88
2021-01-31 18:00:00 11.6 28 Sudoeste 42 Sudoeste 0 -- -- 87
2021-01-31 17:00:00 11.6 23 Sur 32 Sur 0 -- -- 88
2021-01-31 16:00:00 11.5 25 Sudoeste 40 Sudoeste 0 -- -- 83
2021-01-31 15:00:00 11.2 20 Sur 37 Sur 0 -- -- 84
2021-01-31 14:00:00 10.4 19 Sur 38 Sudoeste 0 -- -- 89
2021-01-31 13:00:00 9.5 17 Sur 28 Sur 0 -- -- 93
2021-01-31 12:00:00 8.8 16 Sudoeste 35 Sudoeste 0 -- -- 94
2021-01-31 11:00:00 8.3 16 Sudoeste 23 Sur 0.2 -- -- 93
2021-01-31 10:00:00 8 13 Sudoeste 19 Sur 0 -- -- 92
2021-01-31 09:00:00 8.1 9 Sudoeste 21 Sudoeste 0 -- -- 88
2021-01-31 08:00:00 8.3 11 Sudoeste 28 Oeste 0 -- -- 83
2021-01-31 07:00:00 8.4 11 Sudoeste 22 Oeste 0 -- -- 83
2021-01-31 06:00:00 8.5 11 Sudoeste 18 Sudoeste 0 -- -- 80
2021-01-31 05:00:00 9 8 Oeste 36 Oeste 0 -- -- 73
2021-01-31 04:00:00 9.1 7 Noroeste 31 Oeste 0 -- -- 73
2021-01-31 03:00:00 8.8 10 Oeste 41 Oeste 0 -- -- 78
2021-01-31 02:00:00 9.6 10 Sudoeste 35 Noroeste 0 -- -- 72
2021-01-31 01:00:00 8.9 13 Sudoeste 28 Sur 0 -- -- 80
2021-01-31 00:00:00 9.1 16 Sudoeste 24 Sudoeste 0 -- -- 80
2021-01-30 23:00:00 9.9 5 Sudoeste 24 Sudoeste 0 -- -- 78
2021-01-30 22:00:00 10.6 11 Sudoeste 23 Sudoeste 0 -- -- 74
2021-01-30 21:00:00 11.3 15 Sudoeste 28 Sudoeste 0 -- -- 68
2021-01-30 20:00:00 11.8 13 Sudoeste 36 Sudoeste 0 -- -- 66
2021-01-30 19:00:00 12.4 13 Sudoeste 40 Oeste 0 -- -- 61
2021-01-30 18:00:00 13.2 19 Sudoeste 37 Sudoeste 0 -- -- 62
2021-01-30 17:00:00 13.4 17 Oeste 37 Sudoeste 0 -- -- 67
2021-01-30 16:00:00 14.1 26 Sudoeste 48 Oeste 0 -- -- 63
2021-01-30 15:00:00 13.8 18 Sudoeste 43 Sudoeste 0 -- -- 69
2021-01-30 14:00:00 13 18 Sudoeste 40 Sudoeste 0.2 -- -- 85
2021-01-30 13:00:00 12.3 26 Sudoeste 38 Sudoeste 0 -- -- 92
2021-01-30 12:00:00 11.2 15 Sur 23 Sur 0.2 -- -- 97
2021-01-30 11:00:00 10.5 14 Sur 19 Sudoeste 0.2 -- -- 96
2021-01-30 10:00:00 10.2 19 Sudoeste 34 Sur 0 -- -- 93
2021-01-30 09:00:00 10.1 26 Sur 36 Sudoeste 0 -- -- 91
2021-01-30 08:00:00 10.1 23 Sudoeste 32 Sudoeste 0.2 -- -- 94
2021-01-30 07:00:00 10.2 17 Sudoeste 35 Sudoeste 0 -- -- 92
2021-01-30 06:00:00 10.5 22 Sudoeste 33 Sudoeste 0 -- -- 89
2021-01-30 05:00:00 10.2 5 Oeste 25 Sudoeste 0 -- -- 90
2021-01-30 04:00:00 10.6 19 Sudoeste 24 Sudoeste 0 -- -- 91
2021-01-30 03:00:00 10.8 15 Sur 21 Sur 0 -- -- 93
2021-01-30 02:00:00 10.5 5 Sur 17 Sur 0 -- -- 94
2021-01-30 01:00:00 10.3 13 Sur 18 Sur 0 -- -- 96
2021-01-30 00:00:00 10.4 12 Sudoeste 15 Sudoeste 0 -- -- 97